sensor_id;sensor_type;location;lat;lon;timestamp;P1;durP1;ratioP1;P2;durP2;ratioP2
12059;SDS011;6091;51.432;6.880;2024-01-27T00:00:33;0.70;;;0.70;;
12059;SDS011;6091;51.432;6.880;2024-01-27T00:03:00;1.20;;;0.90;;
12059;SDS011;6091;51.432;6.880;2024-01-27T00:05:28;0.80;;;0.80;;
12059;SDS011;6091;51.432;6.880;2024-01-27T00:07:57;1.67;;;0.90;;
12059;SDS011;6091;51.432;6.880;2024-01-27T00:10:24;0.63;;;0.50;;
12059;SDS011;6091;51.432;6.880;2024-01-27T00:12:51;0.68;;;0.68;;
12059;SDS011;6091;51.432;6.880;2024-01-27T00:15:19;0.90;;;0.70;;
12059;SDS011;6091;51.432;6.880;2024-01-27T00:17:46;0.77;;;0.77;;
12059;SDS011;6091;51.432;6.880;2024-01-27T00:20:13;1.00;;;0.82;;
12059;SDS011;6091;51.432;6.880;2024-01-27T00:22:41;0.75;;;0.75;;
12059;SDS011;6091;51.432;6.880;2024-01-27T00:25:08;1.13;;;0.82;;
12059;SDS011;6091;51.432;6.880;2024-01-27T00:27:36;0.70;;;0.60;;
12059;SDS011;6091;51.432;6.880;2024-01-27T00:30:03;1.55;;;0.82;;
12059;SDS011;6091;51.432;6.880;2024-01-27T00:32:32;1.27;;;0.95;;
12059;SDS011;6091;51.432;6.880;2024-01-27T00:35:02;1.00;;;0.80;;
12059;SDS011;6091;51.432;6.880;2024-01-27T00:37:30;0.90;;;0.73;;
12059;SDS011;6091;51.432;6.880;2024-01-27T00:39:57;0.60;;;0.60;;
12059;SDS011;6091;51.432;6.880;2024-01-27T00:42:24;1.40;;;0.93;;
12059;SDS011;6091;51.432;6.880;2024-01-27T00:44:52;1.98;;;0.80;;
12059;SDS011;6091;51.432;6.880;2024-01-27T00:47:19;1.10;;;0.70;;
12059;SDS011;6091;51.432;6.880;2024-01-27T00:49:46;0.98;;;0.88;;
12059;SDS011;6091;51.432;6.880;2024-01-27T00:52:13;0.73;;;0.73;;
12059;SDS011;6091;51.432;6.880;2024-01-27T00:54:40;0.93;;;0.80;;
12059;SDS011;6091;51.432;6.880;2024-01-27T00:57:09;0.73;;;0.73;;
12059;SDS011;6091;51.432;6.880;2024-01-27T00:59:36;1.13;;;0.90;;
12059;SDS011;6091;51.432;6.880;2024-01-27T01:02:03;1.23;;;0.85;;
12059;SDS011;6091;51.432;6.880;2024-01-27T01:04:30;1.15;;;0.70;;
12059;SDS011;6091;51.432;6.880;2024-01-27T01:06:58;0.90;;;0.70;;
12059;SDS011;6091;51.432;6.880;2024-01-27T01:09:25;0.77;;;0.77;;
12059;SDS011;6091;51.432;6.880;2024-01-27T01:11:52;0.70;;;0.70;;
12059;SDS011;6091;51.432;6.880;2024-01-27T01:14:20;0.73;;;0.73;;
12059;SDS011;6091;51.432;6.880;2024-01-27T01:16:48;0.98;;;0.80;;
12059;SDS011;6091;51.432;6.880;2024-01-27T01:19:15;0.80;;;0.80;;
12059;SDS011;6091;51.432;6.880;2024-01-27T01:21:43;0.80;;;0.70;;
12059;SDS011;6091;51.432;6.880;2024-01-27T01:24:10;0.60;;;0.60;;
12059;SDS011;6091;51.432;6.880;2024-01-27T01:26:38;0.70;;;0.63;;
12059;SDS011;6091;51.432;6.880;2024-01-27T01:29:06;0.70;;;0.70;;
12059;SDS011;6091;51.432;6.880;2024-01-27T01:31:34;0.80;;;0.80;;
12059;SDS011;6091;51.432;6.880;2024-01-27T01:34:01;0.90;;;0.80;;
12059;SDS011;6091;51.432;6.880;2024-01-27T01:36:28;0.95;;;0.80;;
12059;SDS011;6091;51.432;6.880;2024-01-27T01:38:56;1.17;;;1.00;;
12059;SDS011;6091;51.432;6.880;2024-01-27T01:41:24;1.02;;;0.90;;
12059;SDS011;6091;51.432;6.880;2024-01-27T01:43:51;0.93;;;0.70;;
12059;SDS011;6091;51.432;6.880;2024-01-27T01:46:18;0.77;;;0.70;;
12059;SDS011;6091;51.432;6.880;2024-01-27T01:48:45;0.82;;;0.80;;
12059;SDS011;6091;51.432;6.880;2024-01-27T01:51:12;1.00;;;0.70;;
12059;SDS011;6091;51.432;6.880;2024-01-27T01:53:40;1.45;;;0.90;;
12059;SDS011;6091;51.432;6.880;2024-01-27T01:56:09;0.75;;;0.70;;
12059;SDS011;6091;51.432;6.880;2024-01-27T01:58:36;0.77;;;0.77;;
12059;SDS011;6091;51.432;6.880;2024-01-27T02:01:03;0.90;;;0.70;;
12059;SDS011;6091;51.432;6.880;2024-01-27T02:03:30;1.25;;;0.80;;
12059;SDS011;6091;51.432;6.880;2024-01-27T02:05:57;1.20;;;1.10;;
12059;SDS011;6091;51.432;6.880;2024-01-27T02:08:25;0.80;;;0.80;;
12059;SDS011;6091;51.432;6.880;2024-01-27T02:10:52;0.70;;;0.70;;
12059;SDS011;6091;51.432;6.880;2024-01-27T02:13:20;1.15;;;0.77;;
12059;SDS011;6091;51.432;6.880;2024-01-27T02:15:50;1.27;;;1.00;;
12059;SDS011;6091;51.432;6.880;2024-01-27T02:18:17;1.42;;;0.70;;
12059;SDS011;6091;51.432;6.880;2024-01-27T02:20:45;1.27;;;0.80;;
12059;SDS011;6091;51.432;6.880;2024-01-27T02:23:12;0.77;;;0.77;;
12059;SDS011;6091;51.432;6.880;2024-01-27T02:25:40;1.10;;;0.80;;
12059;SDS011;6091;51.432;6.880;2024-01-27T02:28:07;0.80;;;0.70;;
12059;SDS011;6091;51.432;6.880;2024-01-27T02:30:34;0.90;;;0.90;;
12059;SDS011;6091;51.432;6.880;2024-01-27T02:33:01;0.82;;;0.80;;
12059;SDS011;6091;51.432;6.880;2024-01-27T02:35:29;0.80;;;0.80;;
12059;SDS011;6091;51.432;6.880;2024-01-27T02:37:56;1.13;;;0.95;;
12059;SDS011;6091;51.432;6.880;2024-01-27T02:40:23;1.02;;;0.90;;
12059;SDS011;6091;51.432;6.880;2024-01-27T02:42:52;0.95;;;0.75;;
12059;SDS011;6091;51.432;6.880;2024-01-27T02:45:19;0.80;;;0.63;;
12059;SDS011;6091;51.432;6.880;2024-01-27T02:47:46;0.90;;;0.90;;
12059;SDS011;6091;51.432;6.880;2024-01-27T02:50:15;1.10;;;0.93;;
12059;SDS011;6091;51.432;6.880;2024-01-27T02:52:42;0.80;;;0.70;;
12059;SDS011;6091;51.432;6.880;2024-01-27T02:55:09;0.70;;;0.70;;
12059;SDS011;6091;51.432;6.880;2024-01-27T02:57:36;1.00;;;0.90;;
12059;SDS011;6091;51.432;6.880;2024-01-27T03:00:03;0.80;;;0.80;;
12059;SDS011;6091;51.432;6.880;2024-01-27T03:02:31;0.82;;;0.82;;
12059;SDS011;6091;51.432;6.880;2024-01-27T03:04:58;0.95;;;0.70;;
12059;SDS011;6091;51.432;6.880;2024-01-27T03:07:27;1.00;;;0.60;;
12059;SDS011;6091;51.432;6.880;2024-01-27T03:09:54;1.30;;;0.80;;
12059;SDS011;6091;51.432;6.880;2024-01-27T03:12:22;0.88;;;0.88;;
12059;SDS011;6091;51.432;6.880;2024-01-27T03:14:49;0.80;;;0.70;;
12059;SDS011;6091;51.432;6.880;2024-01-27T03:17:17;0.75;;;0.75;;
12059;SDS011;6091;51.432;6.880;2024-01-27T03:19:44;1.17;;;0.90;;
12059;SDS011;6091;51.432;6.880;2024-01-27T03:22:15;1.15;;;0.80;;
12059;SDS011;6091;51.432;6.880;2024-01-27T03:24:42;1.23;;;0.80;;
12059;SDS011;6091;51.432;6.880;2024-01-27T03:27:09;0.93;;;0.75;;
12059;SDS011;6091;51.432;6.880;2024-01-27T03:29:36;1.70;;;0.77;;
12059;SDS011;6091;51.432;6.880;2024-01-27T03:32:04;0.65;;;0.60;;
12059;SDS011;6091;51.432;6.880;2024-01-27T03:34:31;1.00;;;0.70;;
12059;SDS011;6091;51.432;6.880;2024-01-27T03:36:59;0.70;;;0.70;;
12059;SDS011;6091;51.432;6.880;2024-01-27T03:39:26;1.15;;;0.88;;
12059;SDS011;6091;51.432;6.880;2024-01-27T03:41:53;0.80;;;0.80;;
12059;SDS011;6091;51.432;6.880;2024-01-27T03:44:21;1.38;;;0.98;;
12059;SDS011;6091;51.432;6.880;2024-01-27T03:46:48;0.70;;;0.70;;
12059;SDS011;6091;51.432;6.880;2024-01-27T03:49:15;1.25;;;0.85;;
12059;SDS011;6091;51.432;6.880;2024-01-27T03:51:42;0.82;;;0.80;;
12059;SDS011;6091;51.432;6.880;2024-01-27T03:54:10;1.08;;;0.85;;
12059;SDS011;6091;51.432;6.880;2024-01-27T03:56:37;1.05;;;0.80;;
12059;SDS011;6091;51.432;6.880;2024-01-27T03:59:08;0.93;;;0.80;;
12059;SDS011;6091;51.432;6.880;2024-01-27T04:01:37;0.95;;;0.80;;
12059;SDS011;6091;51.432;6.880;2024-01-27T04:04:15;1.25;;;0.80;;
12059;SDS011;6091;51.432;6.880;2024-01-27T04:06:43;1.00;;;0.90;;
12059;SDS011;6091;51.432;6.880;2024-01-27T04:09:10;1.40;;;1.00;;
12059;SDS011;6091;51.432;6.880;2024-01-27T04:11:37;0.80;;;0.80;;
12059;SDS011;6091;51.432;6.880;2024-01-27T04:14:07;1.05;;;0.82;;
12059;SDS011;6091;51.432;6.880;2024-01-27T04:16:34;0.75;;;0.75;;
12059;SDS011;6091;51.432;6.880;2024-01-27T04:19:01;0.95;;;0.85;;
12059;SDS011;6091;51.432;6.880;2024-01-27T04:21:28;0.98;;;0.80;;
12059;SDS011;6091;51.432;6.880;2024-01-27T04:23:56;0.88;;;0.88;;
12059;SDS011;6091;51.432;6.880;2024-01-27T04:26:23;0.68;;;0.65;;
12059;SDS011;6091;51.432;6.880;2024-01-27T04:28:51;1.00;;;0.90;;
12059;SDS011;6091;51.432;6.880;2024-01-27T04:31:18;0.85;;;0.80;;
12059;SDS011;6091;51.432;6.880;2024-01-27T04:33:45;0.60;;;0.60;;
12059;SDS011;6091;51.432;6.880;2024-01-27T04:36:13;0.75;;;0.65;;
12059;SDS011;6091;51.432;6.880;2024-01-27T04:38:40;1.17;;;0.80;;
12059;SDS011;6091;51.432;6.880;2024-01-27T04:41:10;1.33;;;1.00;;
12059;SDS011;6091;51.432;6.880;2024-01-27T04:43:37;1.13;;;0.80;;
12059;SDS011;6091;51.432;6.880;2024-01-27T04:46:13;1.60;;;1.00;;
12059;SDS011;6091;51.432;6.880;2024-01-27T04:48:45;0.70;;;0.70;;
12059;SDS011;6091;51.432;6.880;2024-01-27T04:51:19;1.02;;;0.80;;
12059;SDS011;6091;51.432;6.880;2024-01-27T04:53:46;0.95;;;0.70;;
12059;SDS011;6091;51.432;6.880;2024-01-27T04:56:13;0.77;;;0.68;;
12059;SDS011;6091;51.432;6.880;2024-01-27T04:58:41;1.27;;;0.80;;
12059;SDS011;6091;51.432;6.880;2024-01-27T05:01:09;1.60;;;0.80;;
12059;SDS011;6091;51.432;6.880;2024-01-27T05:03:37;1.10;;;0.85;;
12059;SDS011;6091;51.432;6.880;2024-01-27T05:06:07;0.57;;;0.57;;
12059;SDS011;6091;51.432;6.880;2024-01-27T05:08:36;1.23;;;1.13;;
12059;SDS011;6091;51.432;6.880;2024-01-27T05:11:04;0.60;;;0.60;;
12059;SDS011;6091;51.432;6.880;2024-01-27T05:13:31;0.60;;;0.60;;
12059;SDS011;6091;51.432;6.880;2024-01-27T05:15:58;0.63;;;0.63;;
12059;SDS011;6091;51.432;6.880;2024-01-27T05:18:25;0.70;;;0.70;;
12059;SDS011;6091;51.432;6.880;2024-01-27T05:20:52;1.00;;;0.70;;
12059;SDS011;6091;51.432;6.880;2024-01-27T05:23:20;1.00;;;0.90;;
12059;SDS011;6091;51.432;6.880;2024-01-27T05:25:47;1.00;;;0.70;;
12059;SDS011;6091;51.432;6.880;2024-01-27T05:28:14;0.75;;;0.75;;
12059;SDS011;6091;51.432;6.880;2024-01-27T05:30:43;1.13;;;0.80;;
12059;SDS011;6091;51.432;6.880;2024-01-27T05:33:11;0.80;;;0.80;;
12059;SDS011;6091;51.432;6.880;2024-01-27T05:35:39;0.93;;;0.70;;
12059;SDS011;6091;51.432;6.880;2024-01-27T05:38:06;0.80;;;0.70;;
12059;SDS011;6091;51.432;6.880;2024-01-27T05:40:33;0.90;;;0.88;;
12059;SDS011;6091;51.432;6.880;2024-01-27T05:43:03;0.93;;;0.90;;
12059;SDS011;6091;51.432;6.880;2024-01-27T05:45:30;1.08;;;0.98;;
12059;SDS011;6091;51.432;6.880;2024-01-27T05:47:57;0.82;;;0.77;;
12059;SDS011;6091;51.432;6.880;2024-01-27T05:50:25;1.02;;;0.90;;
12059;SDS011;6091;51.432;6.880;2024-01-27T05:52:53;0.80;;;0.80;;
12059;SDS011;6091;51.432;6.880;2024-01-27T05:55:21;1.30;;;0.77;;
12059;SDS011;6091;51.432;6.880;2024-01-27T05:57:49;0.63;;;0.63;;
12059;SDS011;6091;51.432;6.880;2024-01-27T06:00:16;0.77;;;0.77;;
12059;SDS011;6091;51.432;6.880;2024-01-27T06:02:43;0.70;;;0.70;;
12059;SDS011;6091;51.432;6.880;2024-01-27T06:05:10;1.10;;;0.88;;
12059;SDS011;6091;51.432;6.880;2024-01-27T06:07:38;1.25;;;0.80;;
12059;SDS011;6091;51.432;6.880;2024-01-27T06:10:07;0.98;;;0.90;;
12059;SDS011;6091;51.432;6.880;2024-01-27T06:12:36;1.30;;;0.95;;
12059;SDS011;6091;51.432;6.880;2024-01-27T06:15:04;0.68;;;0.68;;
12059;SDS011;6091;51.432;6.880;2024-01-27T06:17:32;1.33;;;0.70;;
12059;SDS011;6091;51.432;6.880;2024-01-27T06:19:59;0.95;;;0.80;;
12059;SDS011;6091;51.432;6.880;2024-01-27T06:22:27;1.58;;;0.80;;
12059;SDS011;6091;51.432;6.880;2024-01-27T06:24:54;0.73;;;0.73;;
12059;SDS011;6091;51.432;6.880;2024-01-27T06:27:21;1.00;;;0.85;;
12059;SDS011;6091;51.432;6.880;2024-01-27T06:29:48;0.73;;;0.70;;
12059;SDS011;6091;51.432;6.880;2024-01-27T06:32:15;0.82;;;0.80;;
12059;SDS011;6091;51.432;6.880;2024-01-27T06:34:42;0.82;;;0.75;;
12059;SDS011;6091;51.432;6.880;2024-01-27T06:37:09;1.55;;;0.90;;
12059;SDS011;6091;51.432;6.880;2024-01-27T06:39:36;1.05;;;0.80;;
12059;SDS011;6091;51.432;6.880;2024-01-27T06:42:04;0.77;;;0.68;;
12059;SDS011;6091;51.432;6.880;2024-01-27T06:44:31;1.23;;;0.80;;
12059;SDS011;6091;51.432;6.880;2024-01-27T06:46:58;1.02;;;0.80;;
12059;SDS011;6091;51.432;6.880;2024-01-27T06:49:25;0.93;;;0.77;;
12059;SDS011;6091;51.432;6.880;2024-01-27T06:51:52;0.75;;;0.75;;
12059;SDS011;6091;51.432;6.880;2024-01-27T06:54:19;0.80;;;0.80;;
12059;SDS011;6091;51.432;6.880;2024-01-27T06:56:47;0.90;;;0.90;;
12059;SDS011;6091;51.432;6.880;2024-01-27T06:59:14;1.13;;;0.90;;
12059;SDS011;6091;51.432;6.880;2024-01-27T07:01:47;0.73;;;0.70;;
12059;SDS011;6091;51.432;6.880;2024-01-27T07:04:15;0.75;;;0.75;;
12059;SDS011;6091;51.432;6.880;2024-01-27T07:06:42;0.70;;;0.70;;
12059;SDS011;6091;51.432;6.880;2024-01-27T07:09:11;0.60;;;0.60;;
12059;SDS011;6091;51.432;6.880;2024-01-27T07:11:38;0.60;;;0.60;;
12059;SDS011;6091;51.432;6.880;2024-01-27T07:14:05;0.70;;;0.70;;
12059;SDS011;6091;51.432;6.880;2024-01-27T07:16:35;0.68;;;0.68;;
12059;SDS011;6091;51.432;6.880;2024-01-27T07:19:05;0.80;;;0.80;;
12059;SDS011;6091;51.432;6.880;2024-01-27T07:21:32;0.75;;;0.75;;
12059;SDS011;6091;51.432;6.880;2024-01-27T07:24:00;1.33;;;0.80;;
12059;SDS011;6091;51.432;6.880;2024-01-27T07:26:27;0.70;;;0.70;;
12059;SDS011;6091;51.432;6.880;2024-01-27T07:28:54;1.25;;;0.90;;
12059;SDS011;6091;51.432;6.880;2024-01-27T07:31:23;0.80;;;0.80;;
12059;SDS011;6091;51.432;6.880;2024-01-27T07:33:52;0.90;;;0.90;;
12059;SDS011;6091;51.432;6.880;2024-01-27T07:36:20;0.95;;;0.80;;
12059;SDS011;6091;51.432;6.880;2024-01-27T07:38:47;0.90;;;0.90;;
12059;SDS011;6091;51.432;6.880;2024-01-27T07:41:16;0.88;;;0.77;;
12059;SDS011;6091;51.432;6.880;2024-01-27T07:43:43;1.10;;;1.00;;
12059;SDS011;6091;51.432;6.880;2024-01-27T07:46:10;0.80;;;0.73;;
12059;SDS011;6091;51.432;6.880;2024-01-27T07:48:37;0.95;;;0.88;;
12059;SDS011;6091;51.432;6.880;2024-01-27T07:51:05;0.73;;;0.73;;
12059;SDS011;6091;51.432;6.880;2024-01-27T07:53:32;0.80;;;0.80;;
12059;SDS011;6091;51.432;6.880;2024-01-27T07:56:00;0.85;;;0.77;;
12059;SDS011;6091;51.432;6.880;2024-01-27T07:58:32;0.77;;;0.70;;
12059;SDS011;6091;51.432;6.880;2024-01-27T08:01:00;1.35;;;0.95;;
12059;SDS011;6091;51.432;6.880;2024-01-27T08:03:27;0.73;;;0.60;;
12059;SDS011;6091;51.432;6.880;2024-01-27T08:05:54;1.45;;;1.02;;
12059;SDS011;6091;51.432;6.880;2024-01-27T08:08:22;0.80;;;0.80;;
12059;SDS011;6091;51.432;6.880;2024-01-27T08:10:49;1.02;;;0.93;;
12059;SDS011;6091;51.432;6.880;2024-01-27T08:13:16;1.15;;;0.85;;
12059;SDS011;6091;51.432;6.880;2024-01-27T08:15:43;1.75;;;0.90;;
12059;SDS011;6091;51.432;6.880;2024-01-27T08:18:10;1.17;;;0.80;;
12059;SDS011;6091;51.432;6.880;2024-01-27T08:20:38;0.90;;;0.88;;
12059;SDS011;6091;51.432;6.880;2024-01-27T08:23:05;0.82;;;0.82;;
12059;SDS011;6091;51.432;6.880;2024-01-27T08:25:34;0.93;;;0.85;;
12059;SDS011;6091;51.432;6.880;2024-01-27T08:28:01;1.48;;;1.20;;
12059;SDS011;6091;51.432;6.880;2024-01-27T08:30:30;1.10;;;1.00;;
12059;SDS011;6091;51.432;6.880;2024-01-27T08:32:58;1.90;;;1.13;;
12059;SDS011;6091;51.432;6.880;2024-01-27T08:35:25;1.00;;;0.90;;
12059;SDS011;6091;51.432;6.880;2024-01-27T08:37:53;1.92;;;0.90;;
12059;SDS011;6091;51.432;6.880;2024-01-27T08:40:20;3.47;;;1.27;;
12059;SDS011;6091;51.432;6.880;2024-01-27T08:42:47;4.85;;;1.15;;
12059;SDS011;6091;51.432;6.880;2024-01-27T08:45:14;2.08;;;1.45;;
12059;SDS011;6091;51.432;6.880;2024-01-27T08:47:42;3.47;;;1.48;;
12059;SDS011;6091;51.432;6.880;2024-01-27T08:50:09;2.33;;;1.30;;
12059;SDS011;6091;51.432;6.880;2024-01-27T08:52:37;2.35;;;1.27;;
12059;SDS011;6091;51.432;6.880;2024-01-27T08:55:05;8.00;;;1.50;;
12059;SDS011;6091;51.432;6.880;2024-01-27T08:57:33;2.05;;;1.27;;
12059;SDS011;6091;51.432;6.880;2024-01-27T09:00:00;4.05;;;1.75;;
12059;SDS011;6091;51.432;6.880;2024-01-27T09:02:31;3.60;;;1.73;;
12059;SDS011;6091;51.432;6.880;2024-01-27T09:04:59;4.47;;;1.63;;
12059;SDS011;6091;51.432;6.880;2024-01-27T09:07:27;4.57;;;1.88;;
12059;SDS011;6091;51.432;6.880;2024-01-27T09:09:55;2.80;;;1.38;;
12059;SDS011;6091;51.432;6.880;2024-01-27T09:12:22;5.90;;;1.30;;
12059;SDS011;6091;51.432;6.880;2024-01-27T09:14:52;4.28;;;1.65;;
12059;SDS011;6091;51.432;6.880;2024-01-27T09:17:21;2.70;;;1.70;;
12059;SDS011;6091;51.432;6.880;2024-01-27T09:19:48;2.70;;;1.45;;
12059;SDS011;6091;51.432;6.880;2024-01-27T09:22:16;3.38;;;1.33;;
12059;SDS011;6091;51.432;6.880;2024-01-27T09:24:43;2.88;;;1.80;;
12059;SDS011;6091;51.432;6.880;2024-01-27T09:27:11;4.78;;;1.73;;
12059;SDS011;6091;51.432;6.880;2024-01-27T09:29:38;1.95;;;1.25;;
12059;SDS011;6091;51.432;6.880;2024-01-27T09:32:06;2.75;;;1.55;;
12059;SDS011;6091;51.432;6.880;2024-01-27T09:34:33;3.80;;;1.50;;
12059;SDS011;6091;51.432;6.880;2024-01-27T09:37:01;3.33;;;1.77;;
12059;SDS011;6091;51.432;6.880;2024-01-27T09:39:29;3.63;;;2.20;;
12059;SDS011;6091;51.432;6.880;2024-01-27T09:41:56;4.10;;;2.45;;
12059;SDS011;6091;51.432;6.880;2024-01-27T09:44:29;6.50;;;2.35;;
12059;SDS011;6091;51.432;6.880;2024-01-27T09:46:57;3.70;;;2.10;;
12059;SDS011;6091;51.432;6.880;2024-01-27T09:49:25;4.40;;;1.88;;
12059;SDS011;6091;51.432;6.880;2024-01-27T09:51:54;6.30;;;2.40;;
12059;SDS011;6091;51.432;6.880;2024-01-27T09:54:23;5.10;;;2.53;;
12059;SDS011;6091;51.432;6.880;2024-01-27T09:56:51;5.32;;;2.72;;
12059;SDS011;6091;51.432;6.880;2024-01-27T09:59:20;3.40;;;2.35;;
12059;SDS011;6091;51.432;6.880;2024-01-27T10:01:49;4.38;;;2.33;;
12059;SDS011;6091;51.432;6.880;2024-01-27T10:04:19;5.05;;;2.08;;
12059;SDS011;6091;51.432;6.880;2024-01-27T10:06:48;4.25;;;2.05;;
12059;SDS011;6091;51.432;6.880;2024-01-27T10:09:17;7.40;;;3.15;;
12059;SDS011;6091;51.432;6.880;2024-01-27T10:11:46;5.82;;;2.22;;
12059;SDS011;6091;51.432;6.880;2024-01-27T10:14:14;3.22;;;2.03;;
12059;SDS011;6091;51.432;6.880;2024-01-27T10:16:42;3.90;;;2.17;;
12059;SDS011;6091;51.432;6.880;2024-01-27T10:19:16;3.80;;;2.20;;
12059;SDS011;6091;51.432;6.880;2024-01-27T10:21:46;5.80;;;2.15;;
12059;SDS011;6091;51.432;6.880;2024-01-27T10:24:14;3.78;;;2.05;;
12059;SDS011;6091;51.432;6.880;2024-01-27T10:26:42;4.38;;;1.95;;
12059;SDS011;6091;51.432;6.880;2024-01-27T10:29:10;4.65;;;2.35;;
12059;SDS011;6091;51.432;6.880;2024-01-27T10:31:37;3.25;;;2.13;;
12059;SDS011;6091;51.432;6.880;2024-01-27T10:34:05;3.25;;;2.15;;
12059;SDS011;6091;51.432;6.880;2024-01-27T10:36:43;3.25;;;1.95;;
12059;SDS011;6091;51.432;6.880;2024-01-27T10:39:18;3.13;;;1.80;;
12059;SDS011;6091;51.432;6.880;2024-01-27T10:41:50;2.47;;;1.80;;
12059;SDS011;6091;51.432;6.880;2024-01-27T10:44:19;3.65;;;2.10;;
12059;SDS011;6091;51.432;6.880;2024-01-27T10:46:47;2.95;;;1.92;;
12059;SDS011;6091;51.432;6.880;2024-01-27T10:49:16;4.88;;;2.40;;
12059;SDS011;6091;51.432;6.880;2024-01-27T10:51:46;4.10;;;2.15;;
12059;SDS011;6091;51.432;6.880;2024-01-27T10:54:19;2.97;;;2.05;;
12059;SDS011;6091;51.432;6.880;2024-01-27T10:56:57;4.15;;;2.08;;
12059;SDS011;6091;51.432;6.880;2024-01-27T10:59:28;3.45;;;2.17;;
12059;SDS011;6091;51.432;6.880;2024-01-27T11:01:57;2.88;;;2.13;;
12059;SDS011;6091;51.432;6.880;2024-01-27T11:04:24;2.97;;;2.25;;
12059;SDS011;6091;51.432;6.880;2024-01-27T11:06:56;3.03;;;2.55;;
12059;SDS011;6091;51.432;6.880;2024-01-27T11:09:24;2.55;;;2.03;;
12059;SDS011;6091;51.432;6.880;2024-01-27T11:11:53;4.15;;;2.30;;
12059;SDS011;6091;51.432;6.880;2024-01-27T11:14:21;2.95;;;2.20;;
12059;SDS011;6091;51.432;6.880;2024-01-27T11:16:54;3.78;;;2.38;;
12059;SDS011;6091;51.432;6.880;2024-01-27T11:19:24;3.58;;;2.47;;
12059;SDS011;6091;51.432;6.880;2024-01-27T11:22:01;3.63;;;2.60;;
12059;SDS011;6091;51.432;6.880;2024-01-27T11:24:34;2.65;;;1.90;;
12059;SDS011;6091;51.432;6.880;2024-01-27T11:29:33;2.78;;;2.03;;
12059;SDS011;6091;51.432;6.880;2024-01-27T11:32:03;3.05;;;2.10;;
12059;SDS011;6091;51.432;6.880;2024-01-27T11:34:41;2.53;;;1.83;;
12059;SDS011;6091;51.432;6.880;2024-01-27T11:37:15;2.00;;;1.77;;
12059;SDS011;6091;51.432;6.880;2024-01-27T11:39:43;2.55;;;2.00;;
12059;SDS011;6091;51.432;6.880;2024-01-27T11:42:11;3.13;;;2.20;;
12059;SDS011;6091;51.432;6.880;2024-01-27T11:44:41;4.40;;;2.10;;
12059;SDS011;6091;51.432;6.880;2024-01-27T11:47:16;3.15;;;2.50;;
12059;SDS011;6091;51.432;6.880;2024-01-27T11:49:53;21.50;;;2.42;;
12059;SDS011;6091;51.432;6.880;2024-01-27T11:52:24;4.38;;;2.33;;
12059;SDS011;6091;51.432;6.880;2024-01-27T11:54:58;3.03;;;2.20;;
12059;SDS011;6091;51.432;6.880;2024-01-27T11:57:27;9.30;;;2.40;;
12059;SDS011;6091;51.432;6.880;2024-01-27T11:59:55;3.60;;;2.03;;
12059;SDS011;6091;51.432;6.880;2024-01-27T12:02:23;2.95;;;2.17;;
12059;SDS011;6091;51.432;6.880;2024-01-27T12:04:51;2.55;;;1.98;;
12059;SDS011;6091;51.432;6.880;2024-01-27T12:07:19;2.15;;;1.80;;
12059;SDS011;6091;51.432;6.880;2024-01-27T12:09:50;3.55;;;2.08;;
12059;SDS011;6091;51.432;6.880;2024-01-27T12:12:18;2.70;;;1.80;;
12059;SDS011;6091;51.432;6.880;2024-01-27T12:14:50;3.25;;;2.05;;
12059;SDS011;6091;51.432;6.880;2024-01-27T12:17:18;2.28;;;2.00;;
12059;SDS011;6091;51.432;6.880;2024-01-27T12:19:50;3.15;;;2.10;;
12059;SDS011;6091;51.432;6.880;2024-01-27T12:22:26;3.90;;;1.75;;
12059;SDS011;6091;51.432;6.880;2024-01-27T12:24:56;3.55;;;2.40;;
12059;SDS011;6091;51.432;6.880;2024-01-27T12:27:37;3.67;;;2.30;;
12059;SDS011;6091;51.432;6.880;2024-01-27T12:30:09;2.63;;;1.80;;
12059;SDS011;6091;51.432;6.880;2024-01-27T12:32:37;6.40;;;2.08;;
12059;SDS011;6091;51.432;6.880;2024-01-27T12:35:05;3.63;;;1.98;;
12059;SDS011;6091;51.432;6.880;2024-01-27T12:37:35;3.70;;;2.40;;
12059;SDS011;6091;51.432;6.880;2024-01-27T12:40:16;6.70;;;2.25;;
12059;SDS011;6091;51.432;6.880;2024-01-27T12:42:49;2.88;;;2.25;;
12059;SDS011;6091;51.432;6.880;2024-01-27T12:45:17;3.28;;;2.10;;
12059;SDS011;6091;51.432;6.880;2024-01-27T12:47:45;3.28;;;1.90;;
12059;SDS011;6091;51.432;6.880;2024-01-27T12:50:14;5.68;;;2.60;;
12059;SDS011;6091;51.432;6.880;2024-01-27T12:52:41;6.22;;;3.22;;
12059;SDS011;6091;51.432;6.880;2024-01-27T12:55:09;8.85;;;3.15;;
12059;SDS011;6091;51.432;6.880;2024-01-27T12:57:36;5.95;;;2.47;;
12059;SDS011;6091;51.432;6.880;2024-01-27T13:00:04;7.30;;;2.70;;
12059;SDS011;6091;51.432;6.880;2024-01-27T13:02:36;6.72;;;2.63;;
12059;SDS011;6091;51.432;6.880;2024-01-27T13:05:05;6.68;;;2.50;;
12059;SDS011;6091;51.432;6.880;2024-01-27T13:07:33;10.95;;;3.10;;
12059;SDS011;6091;51.432;6.880;2024-01-27T13:10:01;10.18;;;2.90;;
12059;SDS011;6091;51.432;6.880;2024-01-27T13:12:28;8.88;;;2.70;;
12059;SDS011;6091;51.432;6.880;2024-01-27T13:14:57;11.25;;;3.85;;
12059;SDS011;6091;51.432;6.880;2024-01-27T13:17:26;10.40;;;3.10;;
12059;SDS011;6091;51.432;6.880;2024-01-27T13:19:53;10.45;;;3.00;;
12059;SDS011;6091;51.432;6.880;2024-01-27T13:22:21;8.45;;;2.40;;
12059;SDS011;6091;51.432;6.880;2024-01-27T13:24:51;8.40;;;2.55;;
12059;SDS011;6091;51.432;6.880;2024-01-27T13:27:21;8.90;;;2.92;;
12059;SDS011;6091;51.432;6.880;2024-01-27T13:29:49;10.13;;;3.17;;
12059;SDS011;6091;51.432;6.880;2024-01-27T13:32:16;9.85;;;2.60;;
12059;SDS011;6091;51.432;6.880;2024-01-27T13:34:44;7.65;;;2.67;;
12059;SDS011;6091;51.432;6.880;2024-01-27T13:37:11;9.75;;;2.33;;
12059;SDS011;6091;51.432;6.880;2024-01-27T13:39:38;9.57;;;3.60;;
12059;SDS011;6091;51.432;6.880;2024-01-27T13:42:06;7.47;;;2.75;;
12059;SDS011;6091;51.432;6.880;2024-01-27T13:44:34;5.20;;;2.58;;
12059;SDS011;6091;51.432;6.880;2024-01-27T13:47:03;7.47;;;2.85;;
12059;SDS011;6091;51.432;6.880;2024-01-27T13:49:31;6.60;;;2.58;;
12059;SDS011;6091;51.432;6.880;2024-01-27T13:51:59;4.35;;;2.15;;
12059;SDS011;6091;51.432;6.880;2024-01-27T13:54:31;6.78;;;2.67;;
12059;SDS011;6091;51.432;6.880;2024-01-27T13:57:02;6.32;;;2.53;;
12059;SDS011;6091;51.432;6.880;2024-01-27T13:59:30;9.52;;;3.05;;
12059;SDS011;6091;51.432;6.880;2024-01-27T14:02:00;6.90;;;2.70;;
12059;SDS011;6091;51.432;6.880;2024-01-27T14:04:28;8.63;;;2.67;;
12059;SDS011;6091;51.432;6.880;2024-01-27T14:06:56;3.55;;;2.25;;
12059;SDS011;6091;51.432;6.880;2024-01-27T14:09:24;5.65;;;2.70;;
12059;SDS011;6091;51.432;6.880;2024-01-27T14:11:53;4.75;;;2.30;;
12059;SDS011;6091;51.432;6.880;2024-01-27T14:14:23;6.50;;;2.60;;
12059;SDS011;6091;51.432;6.880;2024-01-27T14:16:51;5.70;;;2.70;;
12059;SDS011;6091;51.432;6.880;2024-01-27T14:19:21;5.28;;;2.38;;
12059;SDS011;6091;51.432;6.880;2024-01-27T14:21:50;5.22;;;2.30;;
12059;SDS011;6091;51.432;6.880;2024-01-27T14:24:19;6.00;;;2.20;;
12059;SDS011;6091;51.432;6.880;2024-01-27T14:26:47;4.13;;;2.20;;
12059;SDS011;6091;51.432;6.880;2024-01-27T14:29:16;6.05;;;2.40;;
12059;SDS011;6091;51.432;6.880;2024-01-27T14:31:44;6.72;;;2.50;;
12059;SDS011;6091;51.432;6.880;2024-01-27T14:34:13;4.07;;;2.20;;
12059;SDS011;6091;51.432;6.880;2024-01-27T14:36:41;4.07;;;2.10;;
12059;SDS011;6091;51.432;6.880;2024-01-27T14:39:08;5.57;;;2.17;;
12059;SDS011;6091;51.432;6.880;2024-01-27T14:41:37;5.13;;;1.90;;
12059;SDS011;6091;51.432;6.880;2024-01-27T14:44:04;5.35;;;1.85;;
12059;SDS011;6091;51.432;6.880;2024-01-27T14:46:32;5.38;;;1.92;;
12059;SDS011;6091;51.432;6.880;2024-01-27T14:49:08;6.25;;;2.25;;
12059;SDS011;6091;51.432;6.880;2024-01-27T14:51:36;8.88;;;2.30;;
12059;SDS011;6091;51.432;6.880;2024-01-27T14:54:05;3.40;;;1.98;;
12059;SDS011;6091;51.432;6.880;2024-01-27T14:56:33;5.20;;;2.50;;
12059;SDS011;6091;51.432;6.880;2024-01-27T14:59:00;4.85;;;2.38;;
12059;SDS011;6091;51.432;6.880;2024-01-27T15:01:28;5.47;;;2.05;;
12059;SDS011;6091;51.432;6.880;2024-01-27T15:03:56;3.50;;;2.20;;
12059;SDS011;6091;51.432;6.880;2024-01-27T15:06:24;5.72;;;1.98;;
12059;SDS011;6091;51.432;6.880;2024-01-27T15:08:52;3.97;;;2.10;;